createdAt,value
2016-10-27T00:00:41.426Z,9.82
2016-10-27T00:01:41.447Z,9.73
2016-10-27T00:02:41.382Z,9.7
2016-10-27T00:03:41.415Z,9.81
2016-10-27T00:04:41.398Z,9.81
2016-10-27T00:05:41.396Z,9.81
2016-10-27T00:06:41.365Z,9.85
2016-10-27T00:07:41.410Z,9.82
2016-10-27T00:08:41.450Z,9.85
2016-10-27T00:09:41.408Z,9.79
2016-10-27T00:10:41.466Z,9.71
2016-10-27T00:11:41.384Z,9.76
2016-10-27T00:12:41.432Z,9.81
2016-10-27T00:13:42.391Z,9.83
2016-10-27T00:14:41.424Z,9.73
2016-10-27T00:15:41.428Z,9.68
2016-10-27T00:16:41.422Z,9.76
2016-10-27T00:17:41.483Z,9.75
2016-10-27T00:18:41.448Z,9.79
2016-10-27T00:19:42.344Z,9.83
2016-10-27T00:20:41.397Z,9.91
2016-10-27T00:21:41.452Z,9.82
2016-10-27T00:22:41.431Z,9.78
2016-10-27T00:23:41.405Z,9.88
2016-10-27T00:24:41.352Z,9.73
2016-10-27T00:25:41.418Z,9.85
2016-10-27T00:26:41.403Z,9.91
2016-10-27T00:27:41.386Z,9.85
2016-10-27T00:28:41.422Z,9.88
2016-10-27T00:29:41.401Z,9.82
2016-10-27T00:30:41.394Z,9.93
2016-10-27T00:31:41.393Z,9.75
2016-10-27T00:32:41.422Z,9.83
2016-10-27T00:33:41.423Z,9.85
2016-10-27T00:34:41.406Z,9.85
2016-10-27T00:35:41.398Z,9.79
2016-10-27T00:36:41.668Z,9.82
2016-10-27T00:37:41.535Z,9.86
2016-10-27T00:38:42.376Z,9.91
2016-10-27T00:39:41.395Z,9.85
2016-10-27T00:40:41.457Z,9.89
2016-10-27T00:41:41.425Z,9.91
2016-10-27T00:42:41.446Z,9.78
2016-10-27T00:43:41.473Z,9.81
2016-10-27T00:44:41.477Z,10.04
2016-10-27T00:45:41.452Z,9.94
2016-10-27T00:46:41.429Z,9.89
2016-10-27T00:47:41.484Z,9.93
2016-10-27T00:48:41.473Z,9.99
2016-10-27T00:49:42.111Z,9.93
2016-10-27T00:50:41.422Z,10
2016-10-27T00:51:41.409Z,9.93
2016-10-27T00:52:41.375Z,9.96
2016-10-27T00:53:41.406Z,9.99
2016-10-27T00:54:41.403Z,9.93
2016-10-27T00:55:41.436Z,9.94
2016-10-27T00:56:41.372Z,9.94
2016-10-27T00:57:41.496Z,9.99
2016-10-27T00:58:41.400Z,9.91
2016-10-27T00:59:41.394Z,10.01
2016-10-27T01:00:41.432Z,9.93
2016-10-27T01:01:41.653Z,9.97
2016-10-27T01:02:41.407Z,10
2016-10-27T01:03:41.774Z,9.93
2016-10-27T01:04:41.425Z,10.07
2016-10-27T01:05:41.403Z,9.93
2016-10-27T01:06:41.493Z,9.93
2016-10-27T01:07:42.027Z,10.01
2016-10-27T01:08:41.449Z,9.96
2016-10-27T01:09:41.473Z,9.91
2016-10-27T01:10:42.373Z,10.1
2016-10-27T01:11:41.476Z,10.04
2016-10-27T01:12:41.738Z,10.04
2016-10-27T01:13:42.083Z,10.01
2016-10-27T01:14:41.799Z,9.99
2016-10-27T01:15:41.480Z,9.94
2016-10-27T01:16:41.438Z,9.91
2016-10-27T01:17:41.488Z,10.04
2016-10-27T01:18:42.304Z,9.89
2016-10-27T01:19:41.425Z,10.03
2016-10-27T01:20:41.449Z,10
2016-10-27T01:21:41.444Z,9.97
2016-10-27T01:22:41.416Z,10
2016-10-27T01:23:41.440Z,10.01
2016-10-27T01:24:41.446Z,10.07
2016-10-27T01:25:41.427Z,9.93
2016-10-27T01:26:41.505Z,10
2016-10-27T01:27:41.676Z,10.04
2016-10-27T01:28:41.431Z,9.93
2016-10-27T01:29:41.567Z,10.03
2016-10-27T01:30:41.443Z,10
2016-10-27T01:31:42.049Z,10.01
2016-10-27T01:32:41.894Z,10.12
2016-10-27T01:33:41.489Z,10.06
2016-10-27T01:34:41.450Z,10.07
2016-10-27T01:35:41.440Z,9.96
2016-10-27T01:36:41.462Z,10.04
2016-10-27T01:37:41.426Z,10.01
2016-10-27T01:38:41.436Z,10.01
2016-10-27T01:39:41.458Z,9.99
2016-10-27T01:40:41.468Z,10.07
2016-10-27T01:41:41.424Z,9.99
2016-10-27T01:42:42.760Z,10.09
2016-10-27T01:43:41.437Z,9.97
2016-10-27T01:44:41.429Z,10.12
2016-10-27T01:45:41.948Z,10.1
2016-10-27T01:46:41.427Z,10.09
2016-10-27T01:47:41.465Z,10.04
2016-10-27T01:48:41.441Z,9.94
2016-10-27T01:49:41.420Z,10.01
2016-10-27T01:50:41.429Z,10.06
2016-10-27T01:51:41.431Z,10.03
2016-10-27T01:52:41.426Z,10.12
2016-10-27T01:53:41.782Z,10.07
2016-10-27T01:54:42.065Z,10.12
2016-10-27T01:55:42.962Z,10.12
2016-10-27T01:56:42.437Z,10.12
2016-10-27T01:57:42.678Z,10.1
2016-10-27T01:58:42.451Z,10.07
2016-10-27T01:59:41.472Z,10.04
2016-10-27T02:00:41.465Z,10.01
2016-10-27T02:01:41.529Z,10.14
2016-10-27T02:02:41.956Z,10.01
2016-10-27T02:03:42.055Z,10.14
2016-10-27T02:04:41.922Z,10.07
2016-10-27T02:05:41.475Z,10.14
2016-10-27T02:06:41.482Z,10.14
2016-10-27T02:07:41.470Z,10.12
2016-10-27T02:08:41.490Z,10.1
2016-10-27T02:09:41.468Z,10.12
2016-10-27T02:10:41.447Z,10.19
2016-10-27T02:11:41.730Z,10.12
2016-10-27T02:12:41.450Z,10.18
2016-10-27T02:13:41.469Z,10.32
2016-10-27T02:14:41.469Z,10.14
2016-10-27T02:15:41.492Z,10.17
2016-10-27T02:16:41.562Z,10.07
2016-10-27T02:17:41.511Z,10.17
2016-10-27T02:18:41.497Z,10.12
2016-10-27T02:19:41.505Z,10.24
2016-10-27T02:20:41.519Z,10.21
2016-10-27T02:21:41.554Z,10.24
2016-10-27T02:22:41.498Z,10.21
2016-10-27T02:23:41.556Z,10.15
2016-10-27T02:24:41.517Z,10.21
2016-10-27T02:25:41.492Z,10.14
2016-10-27T02:26:41.485Z,10.19
2016-10-27T02:27:41.492Z,10.24
2016-10-27T02:28:41.482Z,10.22
2016-10-27T02:29:41.497Z,10.28
2016-10-27T02:30:41.468Z,10.28
2016-10-27T02:31:41.526Z,10.21
2016-10-27T02:32:41.486Z,10.25
2016-10-27T02:33:41.501Z,10.33
2016-10-27T02:34:41.478Z,10.14
2016-10-27T02:35:41.450Z,10.18
2016-10-27T02:36:41.463Z,10.26
2016-10-27T02:37:41.471Z,10.14
2016-10-27T02:38:41.511Z,10.17
2016-10-27T02:39:41.514Z,10.18
2016-10-27T02:40:41.513Z,10.25
2016-10-27T02:41:41.514Z,10.24
2016-10-27T02:42:41.535Z,10.1
2016-10-27T02:43:41.503Z,10.21
2016-10-27T02:44:41.523Z,10.25
2016-10-27T02:45:41.538Z,10.18
2016-10-27T02:46:41.561Z,10.14
2016-10-27T02:47:41.537Z,10.12
2016-10-27T02:48:41.623Z,10.22
2016-10-27T02:49:41.537Z,10.17
2016-10-27T02:50:41.606Z,10.24
2016-10-27T02:51:41.519Z,10.21
2016-10-27T02:52:41.520Z,10.22
2016-10-27T02:53:41.583Z,10.21
2016-10-27T02:54:41.525Z,10.19
2016-10-27T02:55:41.804Z,10.19
2016-10-27T02:56:41.631Z,10.21
2016-10-27T02:57:41.507Z,10.17
2016-10-27T02:58:41.530Z,10.21
2016-10-27T02:59:41.548Z,10.17
2016-10-27T03:00:41.554Z,10.12
2016-10-27T03:01:41.542Z,10.25
2016-10-27T03:02:41.530Z,10.25
2016-10-27T03:03:41.569Z,10.15
2016-10-27T03:04:41.562Z,10.21
2016-10-27T03:05:41.574Z,10.24
2016-10-27T03:06:41.878Z,10.19
2016-10-27T03:07:41.526Z,10.12
2016-10-27T03:08:41.584Z,10.34
2016-10-27T03:09:41.552Z,10.25
2016-10-27T03:10:41.570Z,10.28
2016-10-27T03:11:41.547Z,10.26
2016-10-27T03:12:41.517Z,10.26
2016-10-27T03:13:41.546Z,10.21
2016-10-27T03:14:41.549Z,10.24
2016-10-27T03:15:41.534Z,10.39
2016-10-27T03:16:41.596Z,10.28
2016-10-27T03:17:41.552Z,10.24
2016-10-27T03:18:41.604Z,10.28
2016-10-27T03:19:41.526Z,10.28
2016-10-27T03:20:41.573Z,10.33
2016-10-27T03:21:41.532Z,10.37
2016-10-27T03:22:41.515Z,10.32
2016-10-27T03:23:41.552Z,10.33
2016-10-27T03:24:41.613Z,10.36
2016-10-27T03:25:41.562Z,10.19
2016-10-27T03:26:41.534Z,10.36
2016-10-27T03:27:41.549Z,10.39
2016-10-27T03:28:41.581Z,10.26
2016-10-27T03:29:41.546Z,10.4
2016-10-27T03:30:41.553Z,10.42
2016-10-27T03:31:41.536Z,10.3
2016-10-27T03:32:41.549Z,10.43
2016-10-27T03:33:41.572Z,10.36
2016-10-27T03:34:41.549Z,10.34
2016-10-27T03:35:41.528Z,10.55
2016-10-27T03:36:41.576Z,10.44
2016-10-27T03:37:41.584Z,10.46
2016-10-27T03:38:41.608Z,10.44
2016-10-27T03:39:41.620Z,10.44
2016-10-27T03:40:41.583Z,10.34
2016-10-27T03:41:41.598Z,10.37
2016-10-27T03:42:41.590Z,10.47
2016-10-27T03:43:41.587Z,10.52
2016-10-27T03:44:41.666Z,10.42
2016-10-27T03:45:41.615Z,10.4
2016-10-27T03:46:41.727Z,10.47
2016-10-27T03:47:41.574Z,10.63
2016-10-27T03:48:41.573Z,10.62
2016-10-27T03:49:41.573Z,10.58
2016-10-27T03:50:41.580Z,10.52
2016-10-27T03:51:41.619Z,10.51
2016-10-27T03:52:41.594Z,10.43
2016-10-27T03:53:41.610Z,10.53
2016-10-27T03:54:41.597Z,10.51
2016-10-27T03:55:41.597Z,10.44
2016-10-27T03:56:41.603Z,10.52
2016-10-27T03:57:41.603Z,10.56
2016-10-27T03:58:41.613Z,10.51
2016-10-27T03:59:41.594Z,10.58
2016-10-27T04:00:41.592Z,10.53
2016-10-27T04:01:41.586Z,10.77
2016-10-27T04:02:41.591Z,10.59
2016-10-27T04:03:41.592Z,10.55
2016-10-27T04:04:41.551Z,10.53
2016-10-27T04:05:41.571Z,10.6
2016-10-27T04:06:41.586Z,10.47
2016-10-27T04:07:41.573Z,10.65
2016-10-27T04:08:41.563Z,10.59
2016-10-27T04:09:41.589Z,10.6
2016-10-27T04:10:41.586Z,10.58
2016-10-27T04:11:41.583Z,10.52
2016-10-27T04:12:48.081Z,10.52
2016-10-27T04:13:49.467Z,10.6
2016-10-27T04:14:48.267Z,10.53
2016-10-27T04:15:48.920Z,10.56
2016-10-27T04:16:41.614Z,10.53
2016-10-27T04:17:48.646Z,10.62
2016-10-27T04:18:49.583Z,10.56
2016-10-27T04:19:48.835Z,10.58
2016-10-27T04:20:48.995Z,10.56
2016-10-27T04:21:49.001Z,10.53
2016-10-27T04:22:49.311Z,10.65
2016-10-27T04:23:49.244Z,10.65
2016-10-27T04:24:41.600Z,10.6
2016-10-27T04:25:41.637Z,10.65
2016-10-27T04:26:41.608Z,10.55
2016-10-27T04:27:41.788Z,10.68
2016-10-27T04:28:41.627Z,10.62
2016-10-27T04:29:41.677Z,10.66
2016-10-27T04:30:41.596Z,10.63
2016-10-27T04:31:41.609Z,10.52
2016-10-27T04:32:41.603Z,10.62
2016-10-27T04:33:41.615Z,10.51
2016-10-27T04:34:41.629Z,10.63
2016-10-27T04:35:41.592Z,10.55
2016-10-27T04:36:41.642Z,10.59
2016-10-27T04:37:41.603Z,10.56
2016-10-27T04:38:41.603Z,10.65
2016-10-27T04:39:41.627Z,10.56
2016-10-27T04:40:41.600Z,10.58
2016-10-27T04:41:41.600Z,10.71
2016-10-27T04:42:41.651Z,10.77
2016-10-27T04:43:41.628Z,10.56
2016-10-27T04:44:41.621Z,10.47
2016-10-27T04:45:41.571Z,10.62
2016-10-27T04:46:41.626Z,10.73
2016-10-27T04:47:41.581Z,10.74
2016-10-27T04:48:41.689Z,10.74
2016-10-27T04:49:41.626Z,10.78
2016-10-27T04:50:41.606Z,10.59
2016-10-27T04:51:41.606Z,10.6
2016-10-27T04:52:41.618Z,10.63
2016-10-27T04:53:41.682Z,10.62
2016-10-27T04:54:41.645Z,10.76
2016-10-27T04:55:41.622Z,10.66
2016-10-27T04:56:41.618Z,10.65
2016-10-27T04:57:41.613Z,10.71
2016-10-27T04:58:41.622Z,10.65
2016-10-27T04:59:41.607Z,10.71
2016-10-27T05:00:41.609Z,10.73
2016-10-27T05:01:41.599Z,10.77
2016-10-27T05:02:41.627Z,10.7
2016-10-27T05:03:41.642Z,10.71
2016-10-27T05:04:41.640Z,10.81
2016-10-27T05:05:41.610Z,10.66
2016-10-27T05:06:41.639Z,10.65
2016-10-27T05:07:41.616Z,10.78
2016-10-27T05:08:41.626Z,10.62
2016-10-27T05:09:41.719Z,10.74
2016-10-27T05:10:41.678Z,10.66
2016-10-27T05:11:44.035Z,10.77
2016-10-27T05:12:41.674Z,10.74
2016-10-27T05:13:41.703Z,10.71
2016-10-27T05:14:41.699Z,10.62
2016-10-27T05:15:41.678Z,10.83
2016-10-27T05:16:42.619Z,10.66
2016-10-27T05:17:42.086Z,10.66
2016-10-27T05:18:42.397Z,10.68
2016-10-27T05:19:41.789Z,10.73
2016-10-27T05:20:41.674Z,10.76
2016-10-27T05:21:41.913Z,10.71
2016-10-27T05:22:41.796Z,10.77
2016-10-27T05:23:41.616Z,10.83
2016-10-27T05:24:41.602Z,10.7
2016-10-27T05:25:41.756Z,10.8
2016-10-27T05:26:41.592Z,10.74
2016-10-27T05:27:41.994Z,10.76
2016-10-27T05:28:41.675Z,10.73
2016-10-27T05:29:41.635Z,10.77
2016-10-27T05:30:41.637Z,10.86
2016-10-27T05:31:41.642Z,10.81
2016-10-27T05:32:41.747Z,10.84
2016-10-27T05:33:41.676Z,10.76
2016-10-27T05:34:41.615Z,10.86
2016-10-27T05:35:41.625Z,10.78
2016-10-27T05:36:41.615Z,10.78
2016-10-27T05:37:41.685Z,10.77
2016-10-27T05:38:41.660Z,10.89
2016-10-27T05:39:41.647Z,10.78
2016-10-27T05:40:41.630Z,10.78
2016-10-27T05:41:41.676Z,10.77
2016-10-27T05:42:41.627Z,10.7
2016-10-27T05:43:41.681Z,10.89
2016-10-27T05:44:41.625Z,10.71
2016-10-27T05:45:41.628Z,10.89
2016-10-27T05:46:41.643Z,10.81
2016-10-27T05:47:41.646Z,10.91
2016-10-27T05:48:41.671Z,10.84
2016-10-27T05:49:41.656Z,10.78
2016-10-27T05:50:41.648Z,10.86
2016-10-27T05:51:41.669Z,10.73
2016-10-27T05:52:41.647Z,10.78
2016-10-27T05:53:42.268Z,10.81
2016-10-27T05:54:41.702Z,10.89
2016-10-27T05:55:41.668Z,10.83
2016-10-27T05:56:41.703Z,10.77
2016-10-27T05:57:41.691Z,10.8
2016-10-27T05:58:41.775Z,10.88
2016-10-27T05:59:41.683Z,10.86
2016-10-27T06:00:41.706Z,10.94
2016-10-27T06:01:41.697Z,10.83
2016-10-27T06:02:41.645Z,10.8
2016-10-27T06:03:42.015Z,10.8
2016-10-27T06:04:41.857Z,10.88
2016-10-27T06:05:41.707Z,10.88
2016-10-27T06:06:41.717Z,10.89
2016-10-27T06:07:41.838Z,10.88
2016-10-27T06:08:41.666Z,10.84
2016-10-27T06:09:41.645Z,10.86
2016-10-27T06:10:41.655Z,10.83
2016-10-27T06:11:41.818Z,10.83
2016-10-27T06:12:41.708Z,11.01
2016-10-27T06:13:41.693Z,10.91
2016-10-27T06:14:41.666Z,10.95
2016-10-27T06:15:41.676Z,10.99
2016-10-27T06:16:41.678Z,10.96
2016-10-27T06:17:41.649Z,11.03
2016-10-27T06:18:41.674Z,10.88
2016-10-27T06:19:41.670Z,10.94
2016-10-27T06:20:41.707Z,10.96
2016-10-27T06:21:41.652Z,10.86
2016-10-27T06:22:41.656Z,11.01
2016-10-27T06:23:41.735Z,10.88
2016-10-27T06:24:41.736Z,10.95
2016-10-27T06:25:41.727Z,10.98
2016-10-27T06:26:41.663Z,11.02
2016-10-27T06:27:41.666Z,11.03
2016-10-27T06:28:41.732Z,10.92
2016-10-27T06:29:41.671Z,10.99
2016-10-27T06:30:41.725Z,11.02
2016-10-27T06:31:41.732Z,10.98
2016-10-27T06:32:41.668Z,10.99
2016-10-27T06:33:41.694Z,10.99
2016-10-27T06:34:41.672Z,10.84
2016-10-27T06:35:41.685Z,10.92
2016-10-27T06:36:41.719Z,11.02
2016-10-27T06:37:41.757Z,11.13
2016-10-27T06:38:41.738Z,11.06
2016-10-27T06:39:41.696Z,11.02
2016-10-27T06:40:41.700Z,11.03
2016-10-27T06:41:41.659Z,11.01
2016-10-27T06:42:41.693Z,10.99
2016-10-27T06:43:41.699Z,10.91
2016-10-27T06:44:41.695Z,10.98
2016-10-27T06:45:41.687Z,10.94
2016-10-27T06:46:41.744Z,11.07
2016-10-27T06:47:41.712Z,11.07
2016-10-27T06:48:41.693Z,11.07
2016-10-27T06:49:41.747Z,11.16
2016-10-27T06:50:41.697Z,11.16
2016-10-27T06:51:41.680Z,11.02
2016-10-27T06:52:41.758Z,11.13
2016-10-27T06:53:41.718Z,11.06
2016-10-27T06:54:41.904Z,11.14
2016-10-27T06:55:41.990Z,11.16
2016-10-27T06:56:42.157Z,11.16
2016-10-27T06:57:41.747Z,11.16
2016-10-27T06:58:41.717Z,11.09
2016-10-27T06:59:41.702Z,11.14
2016-10-27T07:00:41.708Z,11.17
2016-10-27T07:01:41.735Z,11.1
2016-10-27T07:02:41.693Z,11.13
2016-10-27T07:03:41.755Z,11.28
2016-10-27T07:04:41.763Z,11.13
2016-10-27T07:05:41.725Z,11.13
2016-10-27T07:06:41.704Z,11.24
2016-10-27T07:07:41.716Z,11.25
2016-10-27T07:08:41.705Z,11.28
2016-10-27T07:09:41.681Z,11.2
2016-10-27T07:10:41.702Z,11.2
2016-10-27T07:11:41.709Z,11.32
2016-10-27T07:12:41.735Z,11.27
2016-10-27T07:13:41.725Z,11.32
2016-10-27T07:14:41.694Z,11.14
2016-10-27T07:15:41.703Z,11.28
2016-10-27T07:16:41.731Z,11.27
2016-10-27T07:17:41.752Z,11.27
2016-10-27T07:18:41.717Z,11.21
2016-10-27T07:19:41.722Z,11.21
2016-10-27T07:20:41.757Z,11.32
2016-10-27T07:21:41.729Z,11.24
2016-10-27T07:22:41.725Z,11.28
2016-10-27T07:23:41.814Z,11.24
2016-10-27T07:24:41.766Z,11.38
2016-10-27T07:25:41.763Z,11.35
2016-10-27T07:26:41.771Z,11.43
2016-10-27T07:27:41.727Z,11.35
2016-10-27T07:28:41.820Z,11.35
2016-10-27T07:29:41.751Z,11.38
2016-10-27T07:30:41.759Z,11.32
2016-10-27T07:31:41.750Z,11.29
2016-10-27T07:32:41.799Z,11.44
2016-10-27T07:33:41.803Z,11.35
2016-10-27T07:34:41.803Z,11.41
2016-10-27T07:35:41.776Z,11.41
2016-10-27T07:36:41.748Z,11.46
2016-10-27T07:37:41.763Z,11.38
2016-10-27T07:38:41.754Z,11.36
2016-10-27T07:39:41.773Z,11.38
2016-10-27T07:40:41.750Z,11.47
2016-10-27T07:41:41.780Z,11.46
2016-10-27T07:42:41.747Z,11.47
2016-10-27T07:43:41.743Z,11.41
2016-10-27T07:44:41.763Z,11.53
2016-10-27T07:45:41.730Z,11.44
2016-10-27T07:46:41.716Z,11.54
2016-10-27T07:47:41.785Z,11.54
2016-10-27T07:48:41.744Z,11.46
2016-10-27T07:49:41.725Z,11.53
2016-10-27T07:50:41.743Z,11.61
2016-10-27T07:51:41.734Z,11.53
2016-10-27T07:52:42.038Z,11.67
2016-10-27T07:53:41.801Z,11.74
2016-10-27T07:54:41.756Z,11.77
2016-10-27T07:55:41.778Z,11.74
2016-10-27T07:56:41.785Z,11.75
2016-10-27T07:57:41.840Z,11.82
2016-10-27T07:58:41.792Z,11.78
2016-10-27T07:59:41.746Z,11.87
2016-10-27T08:00:41.759Z,11.86
2016-10-27T08:01:41.766Z,11.89
2016-10-27T08:02:41.777Z,12.01
2016-10-27T08:03:41.781Z,12.08
2016-10-27T08:04:41.760Z,12.05
2016-10-27T08:05:41.795Z,11.99
2016-10-27T08:06:41.810Z,12.04
2016-10-27T08:07:41.779Z,12.19
2016-10-27T08:08:41.740Z,11.99
2016-10-27T08:09:41.747Z,12.05
2016-10-27T08:10:41.778Z,11.99
2016-10-27T08:11:41.922Z,12.08
2016-10-27T08:12:41.778Z,12.09
2016-10-27T08:13:41.748Z,12.11
2016-10-27T08:14:41.839Z,12.04
2016-10-27T08:15:41.770Z,12.01
2016-10-27T08:16:41.742Z,12.08
2016-10-27T08:17:41.750Z,12.13
2016-10-27T08:18:41.776Z,12.06
2016-10-27T08:19:41.771Z,12.06
2016-10-27T08:20:41.779Z,12.06
2016-10-27T08:21:41.833Z,12.08
2016-10-27T08:22:41.732Z,12.09
2016-10-27T08:23:41.766Z,12.15
2016-10-27T08:24:41.748Z,12.16
2016-10-27T08:25:41.753Z,12.15
2016-10-27T08:26:41.804Z,12.27
2016-10-27T08:27:41.943Z,12.29
2016-10-27T08:28:41.792Z,12.23
2016-10-27T08:29:41.772Z,12.27
2016-10-27T08:30:41.968Z,12.21
2016-10-27T08:31:41.756Z,12.24
2016-10-27T08:32:41.766Z,12.16
2016-10-27T08:33:41.830Z,12.33
2016-10-27T08:34:41.785Z,12.29
2016-10-27T08:35:41.799Z,12.34
2016-10-27T08:36:41.791Z,12.57
2016-10-27T08:37:41.769Z,12.45
2016-10-27T08:38:41.817Z,12.44
2016-10-27T08:39:41.785Z,12.48
2016-10-27T08:40:41.773Z,12.38
2016-10-27T08:41:41.828Z,12.41
2016-10-27T08:42:41.770Z,12.38
2016-10-27T08:43:41.810Z,12.33
2016-10-27T08:44:41.776Z,12.41
2016-10-27T08:45:41.857Z,12.44
2016-10-27T08:46:42.052Z,12.31
2016-10-27T08:47:41.786Z,12.45
2016-10-27T08:48:41.785Z,12.54
2016-10-27T08:49:41.863Z,12.52
2016-10-27T08:50:41.796Z,12.42
2016-10-27T08:51:41.798Z,12.41
2016-10-27T08:52:41.820Z,12.44
2016-10-27T08:53:41.804Z,12.59
2016-10-27T08:54:41.805Z,12.52
2016-10-27T08:55:41.805Z,12.51
2016-10-27T08:56:41.830Z,12.48
2016-10-27T08:57:41.823Z,12.54
2016-10-27T08:58:41.855Z,12.49
2016-10-27T08:59:41.821Z,12.62
2016-10-27T09:00:41.889Z,12.69
2016-10-27T09:01:41.978Z,12.62
2016-10-27T09:02:41.856Z,12.69
2016-10-27T09:03:41.837Z,12.75
2016-10-27T09:04:41.811Z,12.93
2016-10-27T09:05:41.796Z,12.92
2016-10-27T09:06:41.843Z,12.95
2016-10-27T09:07:41.811Z,12.97
2016-10-27T09:08:41.869Z,13.03
2016-10-27T09:09:41.847Z,13.11
2016-10-27T09:10:41.913Z,13.09
2016-10-27T09:11:41.846Z,13.12
2016-10-27T09:12:41.838Z,13
2016-10-27T09:13:42.905Z,13.17
2016-10-27T09:14:41.862Z,13.14
2016-10-27T09:15:41.831Z,13.15
2016-10-27T09:16:41.831Z,13.37
2016-10-27T09:17:41.824Z,13.27
2016-10-27T09:18:41.838Z,13.44
2016-10-27T09:19:41.827Z,13.37
2016-10-27T09:20:41.911Z,13.41
2016-10-27T09:21:41.916Z,13.38
2016-10-27T09:22:41.814Z,13.52
2016-10-27T09:23:41.843Z,13.51
2016-10-27T09:24:41.895Z,13.44
2016-10-27T09:25:41.853Z,13.63
2016-10-27T09:26:41.831Z,13.7
2016-10-27T09:27:41.823Z,13.7
2016-10-27T09:28:41.820Z,13.76
2016-10-27T09:29:41.852Z,13.74
2016-10-27T09:30:41.836Z,13.77
2016-10-27T09:31:41.805Z,13.74
2016-10-27T09:32:41.845Z,13.8
2016-10-27T09:33:41.838Z,13.79
2016-10-27T09:34:41.815Z,13.84
2016-10-27T09:35:41.817Z,13.91
2016-10-27T09:36:41.871Z,13.99
2016-10-27T09:37:41.933Z,14.06
2016-10-27T09:38:41.862Z,13.96
2016-10-27T09:39:41.891Z,14.13
2016-10-27T09:40:41.882Z,14.16
2016-10-27T09:41:41.894Z,14.16
2016-10-27T09:42:41.821Z,14.12
2016-10-27T09:43:41.831Z,14.28
2016-10-27T09:44:41.823Z,14.14
2016-10-27T09:45:41.840Z,14.12
2016-10-27T09:46:41.818Z,14.17
2016-10-27T09:47:41.837Z,14.13
2016-10-27T09:48:42.543Z,14.1
2016-10-27T09:49:41.834Z,14.2
2016-10-27T09:50:41.823Z,14.19
2016-10-27T09:51:41.802Z,14.21
2016-10-27T09:52:41.853Z,14.19
2016-10-27T09:53:41.910Z,14.1
2016-10-27T09:54:41.808Z,14.01
2016-10-27T09:55:41.853Z,14.17
2016-10-27T09:56:41.805Z,14.12
2016-10-27T09:57:41.810Z,14.01
2016-10-27T09:58:41.856Z,14.13
2016-10-27T09:59:41.853Z,14.12
2016-10-27T10:00:41.889Z,14.04
2016-10-27T10:01:41.878Z,14.06
2016-10-27T10:02:41.870Z,14.12
2016-10-27T10:03:41.898Z,14.07
2016-10-27T10:04:41.849Z,14.1
2016-10-27T10:05:41.834Z,14.1
2016-10-27T10:06:41.992Z,13.96
2016-10-27T10:07:41.847Z,13.96
2016-10-27T10:08:41.864Z,13.92
2016-10-27T10:09:41.862Z,13.99
2016-10-27T10:10:41.834Z,14.07
2016-10-27T10:11:41.881Z,14.06
2016-10-27T10:12:41.839Z,14.04
2016-10-27T10:13:41.951Z,14.1
2016-10-27T10:14:41.892Z,13.99
2016-10-27T10:15:41.858Z,14.07
2016-10-27T10:16:42.582Z,13.99
2016-10-27T10:17:41.863Z,14.09
2016-10-27T10:18:41.877Z,14.04
2016-10-27T10:19:41.894Z,14.09
2016-10-27T10:20:41.868Z,14.12
2016-10-27T10:21:41.880Z,14.12
2016-10-27T10:22:41.857Z,14.06
2016-10-27T10:23:42.131Z,14.12
2016-10-27T10:24:41.904Z,14.09
2016-10-27T10:25:41.939Z,14.02
2016-10-27T10:26:41.896Z,14.21
2016-10-27T10:27:41.922Z,14.1
2016-10-27T10:28:41.913Z,14.07
2016-10-27T10:29:41.871Z,14.12
2016-10-27T10:30:41.875Z,14.09
2016-10-27T10:31:41.870Z,14.07
2016-10-27T10:32:41.910Z,14.31
2016-10-27T10:33:41.900Z,14.2
2016-10-27T10:34:41.876Z,14.25
2016-10-27T10:35:41.853Z,14.34
2016-10-27T10:36:41.863Z,14.38
2016-10-27T10:37:41.869Z,14.44
2016-10-27T10:38:41.877Z,14.42
2016-10-27T10:39:41.884Z,14.47
2016-10-27T10:40:41.878Z,14.42
2016-10-27T10:41:41.946Z,14.43
2016-10-27T10:42:41.888Z,14.47
2016-10-27T10:43:41.951Z,14.53
2016-10-27T10:44:41.919Z,14.64
2016-10-27T10:45:42.192Z,14.52
2016-10-27T10:46:41.965Z,14.57
2016-10-27T10:47:41.885Z,14.69
2016-10-27T10:48:42.501Z,14.56
2016-10-27T10:49:41.881Z,14.69
2016-10-27T10:50:41.873Z,14.54
2016-10-27T10:51:41.914Z,14.68
2016-10-27T10:52:41.888Z,14.65
2016-10-27T10:53:41.880Z,14.69
2016-10-27T10:54:41.986Z,14.56
2016-10-27T10:55:41.905Z,14.81
2016-10-27T10:56:41.871Z,14.81
2016-10-27T10:57:41.875Z,14.9
2016-10-27T10:58:41.909Z,14.87
2016-10-27T10:59:41.917Z,14.75
2016-10-27T11:00:42.001Z,14.84
2016-10-27T11:01:42.143Z,14.84
2016-10-27T11:02:41.869Z,14.78
2016-10-27T11:03:41.935Z,14.84
2016-10-27T11:04:42.066Z,14.86
2016-10-27T11:05:41.866Z,14.78
2016-10-27T11:06:41.902Z,14.72
2016-10-27T11:07:41.910Z,14.83
2016-10-27T11:08:41.929Z,14.9
2016-10-27T11:09:41.921Z,14.83
2016-10-27T11:10:42.016Z,14.87
2016-10-27T11:11:41.957Z,14.91
2016-10-27T11:12:42.002Z,14.91
2016-10-27T11:13:41.938Z,14.99
2016-10-27T11:14:41.916Z,14.95
2016-10-27T11:15:41.913Z,14.91
2016-10-27T11:16:41.898Z,14.78
2016-10-27T11:17:41.929Z,14.91
2016-10-27T11:18:41.897Z,14.95
2016-10-27T11:19:41.917Z,15.09
2016-10-27T11:20:41.939Z,15.05
2016-10-27T11:21:41.930Z,15.01
2016-10-27T11:22:41.996Z,15.13
2016-10-27T11:23:41.990Z,15.21
2016-10-27T11:24:41.983Z,15.13
2016-10-27T11:25:41.950Z,15.11
2016-10-27T11:26:41.929Z,15.06
2016-10-27T11:27:41.930Z,15.21
2016-10-27T11:28:42.563Z,15.17
2016-10-27T11:29:41.958Z,15.2
2016-10-27T11:30:41.939Z,15.27
2016-10-27T11:31:41.948Z,15.3
2016-10-27T11:32:41.901Z,15.21
2016-10-27T11:33:41.974Z,15.35
2016-10-27T11:34:41.908Z,15.3
2016-10-27T11:35:41.953Z,15.27
2016-10-27T11:36:41.940Z,15.27
2016-10-27T11:37:41.918Z,15.38
2016-10-27T11:38:41.949Z,15.31
2016-10-27T11:39:41.928Z,15.35
2016-10-27T11:40:41.938Z,15.35
2016-10-27T11:41:41.929Z,15.45
2016-10-27T11:42:41.960Z,15.54
2016-10-27T11:43:42.028Z,15.48
2016-10-27T11:44:41.962Z,15.41
2016-10-27T11:45:41.985Z,15.38
2016-10-27T11:46:42.002Z,15.46
2016-10-27T11:47:41.938Z,15.45
2016-10-27T11:48:41.959Z,15.38
2016-10-27T11:49:41.961Z,15.38
2016-10-27T11:50:41.958Z,15.39
2016-10-27T11:51:41.942Z,15.39
2016-10-27T11:52:42.010Z,15.3
2016-10-27T11:53:41.942Z,15.27
2016-10-27T11:54:41.975Z,15.3
2016-10-27T11:55:41.962Z,15.28
2016-10-27T11:56:41.921Z,15.11
2016-10-27T11:57:41.923Z,15.19
2016-10-27T11:58:41.964Z,15.23
2016-10-27T11:59:41.958Z,15.13
2016-10-27T12:00:41.945Z,15.19
2016-10-27T12:01:41.968Z,14.99
2016-10-27T12:02:41.958Z,15.06
2016-10-27T12:03:41.929Z,15.05
2016-10-27T12:04:42.221Z,15.06
2016-10-27T12:05:41.948Z,14.98
2016-10-27T12:06:41.987Z,15.06
2016-10-27T12:07:42.074Z,14.98
2016-10-27T12:08:42.030Z,14.94
2016-10-27T12:09:42.032Z,14.98
2016-10-27T12:10:41.965Z,14.83
2016-10-27T12:11:41.967Z,14.83
2016-10-27T12:12:41.952Z,14.93
2016-10-27T12:13:42.201Z,14.87
2016-10-27T12:14:41.983Z,14.9
2016-10-27T12:15:42.004Z,14.88
2016-10-27T12:16:41.983Z,14.88
2016-10-27T12:17:42.000Z,14.91
2016-10-27T12:18:42.007Z,14.75
2016-10-27T12:19:42.015Z,14.9
2016-10-27T12:20:42.004Z,14.81
2016-10-27T12:21:41.952Z,14.74
2016-10-27T12:22:41.976Z,14.74
2016-10-27T12:23:42.022Z,14.86
2016-10-27T12:24:42.003Z,14.8
2016-10-27T12:25:41.987Z,14.87
2016-10-27T12:26:42.007Z,14.8
2016-10-27T12:27:42.017Z,14.78
2016-10-27T12:28:42.007Z,14.74
2016-10-27T12:29:42.041Z,14.65
2016-10-27T12:30:42.002Z,14.74
2016-10-27T12:31:41.988Z,14.71
2016-10-27T12:32:42.026Z,14.93
2016-10-27T12:33:42.007Z,14.93
2016-10-27T12:34:42.017Z,14.81
2016-10-27T12:35:42.006Z,14.91
2016-10-27T12:36:42.022Z,14.88
2016-10-27T12:37:42.010Z,14.83
2016-10-27T12:38:42.060Z,14.9
2016-10-27T12:39:42.017Z,14.78
2016-10-27T12:40:42.022Z,14.72
2016-10-27T12:41:42.005Z,14.68
2016-10-27T12:42:42.027Z,14.6
2016-10-27T12:43:42.003Z,14.62
2016-10-27T12:44:42.040Z,14.65
2016-10-27T12:45:41.997Z,14.64
2016-10-27T12:46:42.653Z,14.57
2016-10-27T12:47:42.001Z,14.53
2016-10-27T12:48:42.003Z,14.67
2016-10-27T12:49:42.185Z,14.61
2016-10-27T12:50:42.096Z,14.56
2016-10-27T12:51:42.065Z,14.6
2016-10-27T12:52:42.032Z,14.5
2016-10-27T12:53:42.033Z,14.56
2016-10-27T12:54:42.053Z,14.6
2016-10-27T12:55:42.047Z,14.56
2016-10-27T12:56:42.079Z,14.62
2016-10-27T12:57:42.043Z,14.53